Time;durP1;ratioP1;P1;durP2;ratioP2;P2;SDS_P1;SDS_P2;PMS_P1;PMS_P2;Temp;Humidity;BMP_temperature;BMP_pressure;BME280_temperature;BME280_humidity;BME280_pressure;Samples;Min_cycle;Max_cycle;Signal;HPM_P1;HPM_P2
2023/05/11 00:00:36;;;;;;;0.10;0.10;;;;;;;;;;4894909;29;20032;-81
2023/05/11 00:03:02;;;;;;;0.10;0.10;;;;;;;;;;4894736;29;20468;-79
2023/05/11 00:05:27;;;;;;;0.10;0.10;;;;;;;;;;4892489;29;20037;-80
2023/05/11 00:07:53;;;;;;;0.10;0.10;;;;;;;;;;4898232;29;20052;-81
2023/05/11 00:10:18;;;;;;;0.10;0.10;;;;;;;;;;4891987;29;20020;-79
2023/05/11 00:12:43;;;;;;;0.10;0.10;;;;;;;;;;4892461;29;20039;-80
2023/05/11 00:15:09;;;;;;;0.10;0.10;;;;;;;;;;4895400;29;20044;-80
2023/05/11 00:17:34;;;;;;;0.10;0.10;;;;;;;;;;4893830;29;20028;-80
2023/05/11 00:20:00;;;;;;;0.10;0.10;;;;;;;;;;4894895;29;20056;-80
2023/05/11 00:22:25;;;;;;;0.10;0.10;;;;;;;;;;4894488;29;20173;-80
2023/05/11 00:24:50;;;;;;;0.10;0.10;;;;;;;;;;4891226;29;20091;-81
2023/05/11 00:27:16;;;;;;;0.10;0.10;;;;;;;;;;4895625;29;20143;-81
2023/05/11 00:29:41;;;;;;;0.20;0.20;;;;;;;;;;4894073;29;20064;-82
2023/05/11 00:32:06;;;;;;;0.10;0.10;;;;;;;;;;4891149;29;20120;-81
2023/05/11 00:34:32;;;;;;;0.10;0.10;;;;;;;;;;4894118;29;20059;-80
2023/05/11 00:36:57;;;;;;;0.10;0.10;;;;;;;;;;4892823;29;20995;-80
2023/05/11 00:39:22;;;;;;;0.10;0.10;;;;;;;;;;4894734;29;20041;-81
2023/05/11 00:41:48;;;;;;;0.10;0.10;;;;;;;;;;4894794;29;20040;-79
2023/05/11 00:44:13;;;;;;;0.10;0.10;;;;;;;;;;4889203;29;20024;-81
2023/05/11 00:46:38;;;;;;;0.10;0.10;;;;;;;;;;4897601;29;20044;-81
2023/05/11 00:49:04;;;;;;;0.10;0.10;;;;;;;;;;4902990;29;20028;-80
2023/05/11 00:51:31;;;;;;;0.10;0.10;;;;;;;;;;4898910;29;20076;-80
2023/05/11 00:53:57;;;;;;;0.10;0.10;;;;;;;;;;4899276;29;20052;-80
2023/05/11 00:56:23;;;;;;;0.20;0.20;;;;;;;;;;4899780;29;20047;-80
2023/05/11 00:58:48;;;;;;;0.10;0.10;;;;;;;;;;4901198;29;20040;-81
2023/05/11 01:01:16;;;;;;;0.10;0.10;;;;;;;;;;4881896;29;20029;-81
2023/05/11 01:03:42;;;;;;;0.10;0.10;;;;;;;;;;4900746;29;20096;-81
2023/05/11 01:06:14;;;;;;;0.10;0.10;;;;;;;;;;4904835;29;20070;-80
2023/05/11 01:08:51;;;;;;;0.10;0.10;;;;;;;;;;4902636;29;20041;-80
2023/05/11 01:11:25;;;;;;;0.10;0.10;;;;;;;;;;4901106;29;20024;-80
2023/05/11 01:14:33;;;;;;;0.10;0.10;;;;;;;;;;4912064;29;20059;-80
2023/05/11 01:17:04;;;;;;;0.10;0.10;;;;;;;;;;4893336;29;20046;-81
2023/05/11 01:20:00;;;;;;;0.10;0.10;;;;;;;;;;4902438;29;20055;-81
2023/05/11 01:22:35;;;;;;;0.15;0.15;;;;;;;;;;4897950;29;20080;-79
2023/05/11 01:25:11;;;;;;;0.10;0.10;;;;;;;;;;4901241;29;20028;-80
2023/05/11 01:27:55;;;;;;;0.10;0.10;;;;;;;;;;4910949;29;20087;-80
2023/05/11 01:30:25;;;;;;;0.10;0.10;;;;;;;;;;4899825;29;20050;-81
2023/05/11 01:32:54;;;;;;;0.10;0.10;;;;;;;;;;4882721;29;20096;-80
2023/05/11 01:35:23;;;;;;;0.20;0.20;;;;;;;;;;4900613;29;20419;-81
2023/05/11 01:37:52;;;;;;;0.15;0.15;;;;;;;;;;4901972;29;20036;-80
2023/05/11 01:40:22;;;;;;;0.10;0.10;;;;;;;;;;4910909;29;20024;-80
2023/05/11 01:42:53;;;;;;;0.10;0.10;;;;;;;;;;4905634;29;20036;-81
2023/05/11 01:45:21;;;;;;;0.10;0.10;;;;;;;;;;4894355;29;20028;-81
2023/05/11 01:47:49;;;;;;;0.20;0.20;;;;;;;;;;4893036;29;20033;-81
2023/05/11 01:50:16;;;;;;;0.10;0.10;;;;;;;;;;4904260;29;20020;-81
2023/05/11 01:52:44;;;;;;;0.10;0.10;;;;;;;;;;4896583;29;20144;-79
2023/05/11 01:55:12;;;;;;;0.10;0.10;;;;;;;;;;4896784;29;20135;-80
2023/05/11 01:57:38;;;;;;;0.10;0.10;;;;;;;;;;4897604;29;20137;-80
2023/05/11 02:00:05;;;;;;;0.10;0.10;;;;;;;;;;4901156;29;20052;-80
2023/05/11 02:02:31;;;;;;;0.10;0.10;;;;;;;;;;4905125;29;20028;-81
2023/05/11 02:04:58;;;;;;;0.20;0.20;;;;;;;;;;4902704;29;20045;-81
2023/05/11 02:07:26;;;;;;;0.10;0.10;;;;;;;;;;4887841;29;20040;-79
2023/05/11 02:09:53;;;;;;;0.20;0.20;;;;;;;;;;4904243;29;20066;-81
2023/05/11 02:12:21;;;;;;;0.20;0.20;;;;;;;;;;4907452;29;20388;-81
2023/05/11 02:14:48;;;;;;;0.20;0.20;;;;;;;;;;4898188;29;20040;-81
2023/05/11 02:17:15;;;;;;;0.20;0.20;;;;;;;;;;4904177;29;20051;-81
2023/05/11 02:19:42;;;;;;;0.20;0.20;;;;;;;;;;4909005;29;20092;-81
2023/05/11 02:22:08;;;;;;;0.10;0.10;;;;;;;;;;4896794;29;20384;-81
2023/05/11 02:24:34;;;;;;;0.10;0.10;;;;;;;;;;4896581;29;20506;-81
2023/05/11 02:27:00;;;;;;;0.20;0.20;;;;;;;;;;4900625;29;20037;-81
2023/05/11 02:29:25;;;;;;;0.10;0.10;;;;;;;;;;4883560;29;20040;-79
2023/05/11 02:32:02;;;;;;;0.10;0.10;;;;;;;;;;4912112;29;20038;-80
2023/05/11 02:34:33;;;;;;;0.10;0.10;;;;;;;;;;4901316;29;20024;-79
2023/05/11 02:37:01;;;;;;;0.13;0.13;;;;;;;;;;4897156;29;20043;-81
2023/05/11 02:39:33;;;;;;;0.10;0.10;;;;;;;;;;4910669;29;20471;-81
2023/05/11 02:42:14;;;;;;;0.10;0.10;;;;;;;;;;4916198;29;20027;-78
2023/05/11 02:44:46;;;;;;;0.10;0.10;;;;;;;;;;4917406;29;20045;-78
2023/05/11 02:47:14;;;;;;;0.10;0.10;;;;;;;;;;4909155;29;20107;-79
2023/05/11 02:49:42;;;;;;;0.10;0.10;;;;;;;;;;4907607;29;20036;-79
2023/05/11 02:52:09;;;;;;;0.10;0.10;;;;;;;;;;4899839;29;20031;-79
2023/05/11 02:54:36;;;;;;;0.10;0.10;;;;;;;;;;4905185;29;20095;-80
2023/05/11 02:57:02;;;;;;;0.20;0.20;;;;;;;;;;4901710;29;20039;-81
2023/05/11 02:59:29;;;;;;;0.20;0.20;;;;;;;;;;4907646;29;20111;-82
2023/05/11 03:01:55;;;;;;;0.15;0.15;;;;;;;;;;4897372;29;20100;-80
2023/05/11 03:04:21;;;;;;;0.10;0.10;;;;;;;;;;4899098;29;20036;-81
2023/05/11 03:06:46;;;;;;;0.10;0.10;;;;;;;;;;4898260;29;20159;-81
2023/05/11 03:09:12;;;;;;;0.10;0.10;;;;;;;;;;4909477;29;20025;-79
2023/05/11 03:11:37;;;;;;;0.20;0.20;;;;;;;;;;4907230;29;20033;-79
2023/05/11 03:14:03;;;;;;;0.20;0.20;;;;;;;;;;4910600;29;20032;-79
2023/05/11 03:16:30;;;;;;;0.10;0.10;;;;;;;;;;4904699;29;20116;-78
2023/05/11 03:18:56;;;;;;;0.10;0.10;;;;;;;;;;4900617;29;20033;-82
2023/05/11 03:21:23;;;;;;;0.10;0.10;;;;;;;;;;4903228;29;20028;-80
2023/05/11 03:23:49;;;;;;;0.10;0.10;;;;;;;;;;4906989;29;20033;-83
2023/05/11 03:26:17;;;;;;;0.20;0.20;;;;;;;;;;4903766;29;20067;-83
2023/05/11 03:28:43;;;;;;;0.17;0.17;;;;;;;;;;4917390;29;20032;-82
2023/05/11 03:31:09;;;;;;;0.10;0.10;;;;;;;;;;4899587;29;20036;-82
2023/05/11 03:33:34;;;;;;;0.13;0.13;;;;;;;;;;4901628;29;20040;-83
2023/05/11 03:36:02;;;;;;;0.17;0.17;;;;;;;;;;4897455;29;20128;-81
2023/05/11 03:38:29;;;;;;;0.10;0.10;;;;;;;;;;4902533;29;20032;-82
2023/05/11 03:40:56;;;;;;;0.10;0.10;;;;;;;;;;4901992;29;20032;-82
2023/05/11 03:43:22;;;;;;;0.15;0.15;;;;;;;;;;4903863;29;20511;-82
2023/05/11 03:45:50;;;;;;;0.10;0.10;;;;;;;;;;4902295;29;20032;-80
2023/05/11 03:48:17;;;;;;;0.10;0.10;;;;;;;;;;4896040;29;20024;-82
2023/05/11 03:50:43;;;;;;;0.10;0.10;;;;;;;;;;4899551;29;20033;-81
2023/05/11 03:53:09;;;;;;;0.20;0.20;;;;;;;;;;4906981;29;20445;-82
2023/05/11 03:55:36;;;;;;;0.15;0.15;;;;;;;;;;4905328;29;20032;-82
2023/05/11 03:58:08;;;;;;;0.20;0.20;;;;;;;;;;4899664;29;20491;-81
2023/05/11 04:00:40;;;;;;;0.10;0.10;;;;;;;;;;4886612;29;20039;-79
2023/05/11 04:03:06;;;;;;;0.20;0.20;;;;;;;;;;4895719;29;20037;-81
2023/05/11 04:05:32;;;;;;;0.20;0.20;;;;;;;;;;4908496;29;20047;-81
2023/05/11 04:07:57;;;;;;;0.10;0.10;;;;;;;;;;4899621;29;20025;-80
2023/05/11 04:10:22;;;;;;;0.10;0.10;;;;;;;;;;4900596;29;20108;-81
2023/05/11 04:12:48;;;;;;;0.10;0.10;;;;;;;;;;4886363;29;20043;-81
2023/05/11 04:15:13;;;;;;;0.10;0.10;;;;;;;;;;4899143;29;20028;-81
2023/05/11 04:17:39;;;;;;;0.10;0.10;;;;;;;;;;4899171;29;20051;-78
2023/05/11 04:20:05;;;;;;;0.13;0.13;;;;;;;;;;4905550;29;20112;-77
2023/05/11 04:22:31;;;;;;;0.10;0.10;;;;;;;;;;4907273;29;20044;-81
2023/05/11 04:24:56;;;;;;;0.10;0.10;;;;;;;;;;4900570;29;20047;-79
2023/05/11 04:27:22;;;;;;;0.10;0.10;;;;;;;;;;4903852;29;20408;-81
2023/05/11 04:29:47;;;;;;;0.10;0.10;;;;;;;;;;4903872;29;20036;-79
2023/05/11 04:32:14;;;;;;;0.10;0.10;;;;;;;;;;4902617;29;20092;-80
2023/05/11 04:34:39;;;;;;;0.10;0.10;;;;;;;;;;4902019;29;20028;-80
2023/05/11 04:37:06;;;;;;;0.10;0.10;;;;;;;;;;4902694;29;20031;-81
2023/05/11 04:39:32;;;;;;;0.10;0.10;;;;;;;;;;4909529;29;20044;-80
2023/05/11 04:41:58;;;;;;;0.10;0.10;;;;;;;;;;4903742;29;20385;-80
2023/05/11 04:44:23;;;;;;;0.10;0.10;;;;;;;;;;4901932;29;20037;-81
2023/05/11 04:46:53;;;;;;;0.10;0.10;;;;;;;;;;4899934;29;20027;-80
2023/05/11 04:49:18;;;;;;;0.10;0.10;;;;;;;;;;4884401;29;20108;-81
2023/05/11 04:51:43;;;;;;;0.10;0.10;;;;;;;;;;4897080;29;20055;-81
2023/05/11 04:54:09;;;;;;;0.10;0.10;;;;;;;;;;4901821;29;20032;-81
2023/05/11 04:56:39;;;;;;;0.10;0.10;;;;;;;;;;4906785;29;20111;-80
2023/05/11 04:59:04;;;;;;;0.10;0.10;;;;;;;;;;4908447;29;20471;-79
2023/05/11 05:01:30;;;;;;;0.40;0.40;;;;;;;;;;4904076;29;20032;-81
2023/05/11 05:03:55;;;;;;;0.20;0.20;;;;;;;;;;4903395;29;20020;-82
2023/05/11 05:06:20;;;;;;;0.10;0.10;;;;;;;;;;4904476;29;20032;-82
2023/05/11 05:08:46;;;;;;;0.20;0.20;;;;;;;;;;4904629;29;20028;-80
2023/05/11 05:11:11;;;;;;;0.10;0.10;;;;;;;;;;4898325;29;20020;-80
2023/05/11 05:13:36;;;;;;;0.10;0.10;;;;;;;;;;4898427;29;20032;-80
2023/05/11 05:16:02;;;;;;;0.10;0.10;;;;;;;;;;4904740;29;20024;-79
2023/05/11 05:18:27;;;;;;;0.10;0.10;;;;;;;;;;4884478;29;20039;-81
2023/05/11 05:20:52;;;;;;;0.10;0.10;;;;;;;;;;4903716;29;20040;-79
2023/05/11 05:23:18;;;;;;;0.10;0.10;;;;;;;;;;4901282;29;20037;-77
2023/05/11 05:25:43;;;;;;;0.17;0.17;;;;;;;;;;4885443;29;20497;-80
2023/05/11 05:28:08;;;;;;;0.10;0.10;;;;;;;;;;4888737;29;20493;-80
2023/05/11 05:30:35;;;;;;;0.15;0.15;;;;;;;;;;4910280;29;20462;-79
2023/05/11 05:33:01;;;;;;;0.10;0.10;;;;;;;;;;4899804;29;20487;-80
2023/05/11 05:35:26;;;;;;;0.10;0.10;;;;;;;;;;4881422;29;20040;-79
2023/05/11 05:37:51;;;;;;;0.10;0.10;;;;;;;;;;4901963;29;20036;-79
2023/05/11 05:40:17;;;;;;;0.10;0.10;;;;;;;;;;4902084;29;20597;-81
2023/05/11 05:42:42;;;;;;;0.10;0.10;;;;;;;;;;4907175;29;20503;-80
2023/05/11 05:45:08;;;;;;;0.20;0.20;;;;;;;;;;4905141;29;20499;-80
2023/05/11 05:47:34;;;;;;;0.10;0.10;;;;;;;;;;4903838;29;20112;-82
2023/05/11 05:49:59;;;;;;;0.10;0.10;;;;;;;;;;4903571;29;20439;-81
2023/05/11 05:52:25;;;;;;;0.13;0.13;;;;;;;;;;4906701;29;20514;-82
2023/05/11 05:54:50;;;;;;;0.15;0.15;;;;;;;;;;4902130;29;20035;-82
2023/05/11 05:57:15;;;;;;;0.10;0.10;;;;;;;;;;4899257;29;20028;-81
2023/05/11 05:59:41;;;;;;;0.10;0.10;;;;;;;;;;4903595;29;20055;-81
2023/05/11 06:02:07;;;;;;;0.20;0.20;;;;;;;;;;4972725;23;20394;-80
2023/05/11 06:04:32;;;;;;;0.20;0.20;;;;;;;;;;4936696;29;20037;-82
2023/05/11 06:06:58;;;;;;;0.20;0.20;;;;;;;;;;4937678;29;20149;-81
2023/05/11 06:09:24;;;;;;;0.10;0.10;;;;;;;;;;4940575;29;20057;-80
2023/05/11 06:11:49;;;;;;;0.10;0.10;;;;;;;;;;4948747;29;20023;-81
2023/05/11 06:14:15;;;;;;;0.10;0.10;;;;;;;;;;4953101;28;20505;-80
2023/05/11 06:16:40;;;;;;;0.10;0.10;;;;;;;;;;4941777;29;20027;-79
2023/05/11 06:19:07;;;;;;;0.10;0.10;;;;;;;;;;4953238;28;20027;-80
2023/05/11 06:21:32;;;;;;;0.10;0.10;;;;;;;;;;4955053;29;20035;-81
2023/05/11 06:23:57;;;;;;;0.10;0.10;;;;;;;;;;4943365;28;20047;-81
2023/05/11 06:26:24;;;;;;;0.10;0.10;;;;;;;;;;4941130;29;20043;-81
2023/05/11 06:28:51;;;;;;;0.10;0.10;;;;;;;;;;4949829;29;20102;-80
2023/05/11 06:31:17;;;;;;;0.10;0.10;;;;;;;;;;4949610;29;20094;-80
2023/05/11 06:33:42;;;;;;;0.13;0.13;;;;;;;;;;4948531;28;20099;-81
2023/05/11 06:36:10;;;;;;;0.17;0.17;;;;;;;;;;4947608;28;20069;-81
2023/05/11 06:38:36;;;;;;;0.10;0.10;;;;;;;;;;4956970;29;20031;-81
2023/05/11 06:41:01;;;;;;;0.10;0.10;;;;;;;;;;4954978;29;20023;-81
2023/05/11 06:43:26;;;;;;;0.10;0.10;;;;;;;;;;4945608;29;20051;-80
2023/05/11 06:45:52;;;;;;;0.20;0.20;;;;;;;;;;4944094;29;20111;-81
2023/05/11 06:48:17;;;;;;;0.10;0.10;;;;;;;;;;4958399;28;20023;-80
2023/05/11 06:50:43;;;;;;;0.10;0.10;;;;;;;;;;4950423;29;20075;-81
2023/05/11 06:53:09;;;;;;;0.10;0.10;;;;;;;;;;4948184;28;20433;-80
2023/05/11 06:55:34;;;;;;;0.22;0.22;;;;;;;;;;4944939;29;20037;-83
2023/05/11 06:58:00;;;;;;;0.10;0.10;;;;;;;;;;4942077;29;20051;-80
2023/05/11 07:00:25;;;;;;;0.10;0.10;;;;;;;;;;4956400;29;20556;-78
2023/05/11 07:02:51;;;;;;;0.10;0.10;;;;;;;;;;4949705;29;20456;-81
2023/05/11 07:05:17;;;;;;;0.10;0.10;;;;;;;;;;4951728;28;20027;-81
2023/05/11 07:07:42;;;;;;;0.10;0.10;;;;;;;;;;4953167;29;20038;-81
2023/05/11 07:10:08;;;;;;;0.20;0.20;;;;;;;;;;4955153;28;20183;-82
2023/05/11 07:12:33;;;;;;;0.10;0.10;;;;;;;;;;4946914;29;20175;-81
2023/05/11 07:14:59;;;;;;;0.10;0.10;;;;;;;;;;4944865;29;20028;-80
2023/05/11 07:17:24;;;;;;;0.10;0.10;;;;;;;;;;4946864;29;20042;-81
2023/05/11 07:19:54;;;;;;;0.10;0.10;;;;;;;;;;4947928;29;20023;-82
2023/05/11 07:22:20;;;;;;;0.10;0.10;;;;;;;;;;4940342;28;20482;-82
2023/05/11 07:24:45;;;;;;;0.10;0.10;;;;;;;;;;4941696;29;20042;-83
2023/05/11 07:27:11;;;;;;;0.10;0.10;;;;;;;;;;4949868;28;20027;-83
2023/05/11 07:29:36;;;;;;;0.10;0.10;;;;;;;;;;4951197;28;20443;-82
2023/05/11 07:32:02;;;;;;;0.10;0.10;;;;;;;;;;4949041;29;20051;-81
2023/05/11 07:34:27;;;;;;;0.10;0.10;;;;;;;;;;4948346;29;20027;-82
2023/05/11 07:36:52;;;;;;;0.10;0.10;;;;;;;;;;4965319;28;20024;-81
2023/05/11 07:39:18;;;;;;;0.10;0.10;;;;;;;;;;4967376;28;20035;-80
2023/05/11 07:41:43;;;;;;;0.10;0.10;;;;;;;;;;4947046;29;20028;-82
2023/05/11 07:44:09;;;;;;;0.10;0.10;;;;;;;;;;4938280;29;20032;-82
2023/05/11 07:46:34;;;;;;;0.10;0.10;;;;;;;;;;4943908;29;20095;-82
2023/05/11 07:49:00;;;;;;;0.10;0.10;;;;;;;;;;4954630;29;20024;-81
2023/05/11 07:51:26;;;;;;;0.10;0.10;;;;;;;;;;4961780;29;20023;-81
2023/05/11 07:53:51;;;;;;;0.20;0.20;;;;;;;;;;4964836;29;20067;-81
2023/05/11 07:56:16;;;;;;;0.17;0.17;;;;;;;;;;4943475;29;20028;-82
2023/05/11 07:58:42;;;;;;;0.10;0.10;;;;;;;;;;4947388;29;20059;-83
2023/05/11 08:01:08;;;;;;;0.15;0.15;;;;;;;;;;4951939;29;20024;-82
2023/05/11 08:03:33;;;;;;;0.10;0.10;;;;;;;;;;4948308;29;20043;-83
2023/05/11 08:05:59;;;;;;;0.10;0.10;;;;;;;;;;4945768;29;20666;-83
2023/05/11 08:08:24;;;;;;;0.10;0.10;;;;;;;;;;4950938;28;20086;-82
2023/05/11 08:10:50;;;;;;;0.10;0.10;;;;;;;;;;4940403;29;20047;-82
2023/05/11 08:13:25;;;;;;;0.10;0.10;;;;;;;;;;4944051;29;20111;-83
2023/05/11 08:15:50;;;;;;;0.10;0.10;;;;;;;;;;4944301;28;20034;-83
2023/05/11 08:18:16;;;;;;;0.10;0.10;;;;;;;;;;4950544;28;20023;-83
2023/05/11 08:20:42;;;;;;;0.10;0.10;;;;;;;;;;5176239;23;20467;-83
2023/05/11 08:23:09;;;;;;;0.10;0.10;;;;;;;;;;4902310;29;20036;-82
2023/05/11 08:25:34;;;;;;;0.10;0.10;;;;;;;;;;4896677;29;20116;-82
2023/05/11 08:28:00;;;;;;;0.10;0.10;;;;;;;;;;4917364;29;20115;-84
2023/05/11 08:30:26;;;;;;;0.10;0.10;;;;;;;;;;4927063;29;20915;-82
2023/05/11 08:32:51;;;;;;;0.10;0.10;;;;;;;;;;4936426;29;20047;-83
2023/05/11 08:35:16;;;;;;;0.10;0.10;;;;;;;;;;4923570;29;20028;-82
2023/05/11 08:37:42;;;;;;;0.10;0.10;;;;;;;;;;4925148;29;20474;-81
2023/05/11 08:40:10;;;;;;;0.15;0.15;;;;;;;;;;4910093;29;20063;-83
2023/05/11 08:42:39;;;;;;;0.10;0.10;;;;;;;;;;4924156;29;20051;-82
2023/05/11 08:45:05;;;;;;;0.10;0.10;;;;;;;;;;4915426;29;20032;-83
2023/05/11 08:47:32;;;;;;;0.10;0.10;;;;;;;;;;4903596;29;20039;-82
2023/05/11 08:49:57;;;;;;;0.10;0.10;;;;;;;;;;4926549;29;20024;-83
2023/05/11 08:52:24;;;;;;;0.10;0.10;;;;;;;;;;4915360;29;20086;-83
2023/05/11 08:54:49;;;;;;;0.10;0.10;;;;;;;;;;4917922;29;20082;-83
2023/05/11 08:57:16;;;;;;;0.10;0.10;;;;;;;;;;4890886;29;20119;-83
2023/05/11 08:59:44;;;;;;;0.10;0.10;;;;;;;;;;4922780;29;20036;-82
2023/05/11 09:02:15;;;;;;;0.10;0.10;;;;;;;;;;4907742;29;20127;-82
2023/05/11 09:04:41;;;;;;;0.10;0.10;;;;;;;;;;4918839;29;20039;-82
2023/05/11 09:07:08;;;;;;;0.10;0.10;;;;;;;;;;4902537;29;20053;-82
2023/05/11 09:09:34;;;;;;;0.10;0.10;;;;;;;;;;4917591;29;20498;-82
2023/05/11 09:12:00;;;;;;;0.13;0.13;;;;;;;;;;4918533;29;20028;-82
2023/05/11 09:14:26;;;;;;;0.10;0.10;;;;;;;;;;4916656;29;20024;-82
2023/05/11 09:16:51;;;;;;;0.10;0.10;;;;;;;;;;4904728;29;20380;-82
2023/05/11 09:19:17;;;;;;;0.03;0.03;;;;;;;;;;4918053;29;20040;-83
2023/05/11 09:21:42;;;;;;;0.17;0.17;;;;;;;;;;4915693;29;20394;-82
2023/05/11 09:24:11;;;;;;;0.10;0.10;;;;;;;;;;4922249;29;20063;-82
2023/05/11 09:26:37;;;;;;;0.10;0.10;;;;;;;;;;4918768;29;20032;-82
2023/05/11 09:29:03;;;;;;;0.10;0.10;;;;;;;;;;4939046;29;20032;-82
2023/05/11 09:31:44;;;;;;;0.10;0.10;;;;;;;;;;4942707;29;20038;-83
2023/05/11 09:34:14;;;;;;;0.10;0.10;;;;;;;;;;4914115;29;20031;-84
2023/05/11 09:36:44;;;;;;;0.10;0.10;;;;;;;;;;4911899;29;20032;-84
2023/05/11 09:39:10;;;;;;;0.17;0.17;;;;;;;;;;4935984;29;20031;-84
2023/05/11 09:41:35;;;;;;;0.10;0.10;;;;;;;;;;4916518;29;20021;-84
2023/05/11 09:44:09;;;;;;;0.10;0.10;;;;;;;;;;4940933;29;20120;-83
2023/05/11 09:46:35;;;;;;;0.10;0.10;;;;;;;;;;4927837;29;20494;-84
2023/05/11 09:49:01;;;;;;;0.20;0.20;;;;;;;;;;4926032;29;20987;-85
2023/05/11 09:51:30;;;;;;;0.10;0.10;;;;;;;;;;4916136;29;20040;-85
2023/05/11 09:53:57;;;;;;;0.10;0.10;;;;;;;;;;4905735;29;20042;-84
2023/05/11 09:56:22;;;;;;;0.10;0.10;;;;;;;;;;4910314;29;20079;-84
2023/05/11 09:58:49;;;;;;;0.10;0.10;;;;;;;;;;4926566;29;20462;-84
2023/05/11 10:01:16;;;;;;;0.10;0.10;;;;;;;;;;4911494;29;20028;-84
2023/05/11 10:03:50;;;;;;;0.10;0.10;;;;;;;;;;4920192;29;20040;-83
2023/05/11 10:06:16;;;;;;;0.10;0.10;;;;;;;;;;4921897;29;20035;-83
2023/05/11 10:08:41;;;;;;;0.10;0.10;;;;;;;;;;4936766;29;20171;-83
2023/05/11 10:11:07;;;;;;;0.25;0.25;;;;;;;;;;4922611;29;20039;-83
2023/05/11 10:13:33;;;;;;;0.10;0.10;;;;;;;;;;4923432;29;20032;-83
2023/05/11 10:16:03;;;;;;;0.20;0.20;;;;;;;;;;4922482;29;20075;-84
2023/05/11 10:18:30;;;;;;;0.17;0.17;;;;;;;;;;4931856;29;20023;-84
2023/05/11 10:20:57;;;;;;;0.10;0.10;;;;;;;;;;4932458;29;20490;-84
2023/05/11 10:23:24;;;;;;;0.10;0.10;;;;;;;;;;4921604;29;20495;-84
2023/05/11 10:25:51;;;;;;;0.10;0.10;;;;;;;;;;4909555;29;20033;-84
2023/05/11 10:28:16;;;;;;;0.10;0.10;;;;;;;;;;4927600;29;20517;-84
2023/05/11 10:30:43;;;;;;;0.10;0.10;;;;;;;;;;4928732;29;20040;-83
2023/05/11 10:33:09;;;;;;;0.10;0.10;;;;;;;;;;4934533;29;20032;-85
2023/05/11 10:35:37;;;;;;;0.10;0.10;;;;;;;;;;4920684;29;20039;-84
2023/05/11 10:38:03;;;;;;;0.13;0.13;;;;;;;;;;4903589;29;20329;-84
2023/05/11 10:40:29;;;;;;;0.17;0.17;;;;;;;;;;4923404;29;20043;-83
2023/05/11 10:50:20;;;;;;;0.10;0.10;;;;;;;;;;5037696;23;20044;-83
2023/05/11 10:53:05;;;;;;;0.10;0.10;;;;;;;;;;4893474;29;20052;-84
2023/05/11 10:56:05;;;;;;;0.13;0.13;;;;;;;;;;4907960;29;20033;-85
2023/05/11 10:59:16;;;;;;;0.10;0.10;;;;;;;;;;4878796;29;20047;-85
2023/05/11 11:01:45;;;;;;;0.20;0.20;;;;;;;;;;4898795;29;20028;-85
2023/05/11 11:04:13;;;;;;;0.22;0.22;;;;;;;;;;4898580;29;20028;-85
2023/05/11 11:06:41;;;;;;;0.10;0.10;;;;;;;;;;4898608;29;20559;-83
2023/05/11 11:09:12;;;;;;;0.10;0.10;;;;;;;;;;4913158;29;20043;-86
2023/05/11 11:11:41;;;;;;;0.13;0.13;;;;;;;;;;4893194;29;20112;-85
2023/05/11 11:14:15;;;;;;;0.30;0.30;;;;;;;;;;4905060;29;20558;-85
2023/05/11 11:17:18;;;;;;;0.10;0.10;;;;;;;;;;4905666;29;20047;-84
2023/05/11 11:19:44;;;;;;;0.10;0.10;;;;;;;;;;4905459;29;20036;-83
2023/05/11 11:22:35;;;;;;;0.10;0.10;;;;;;;;;;4901773;29;20107;-83
2023/05/11 11:25:34;;;;;;;0.10;0.10;;;;;;;;;;4902973;29;20054;-82
2023/05/11 11:28:00;;;;;;;0.10;0.10;;;;;;;;;;4909769;29;20024;-83
2023/05/11 11:30:31;;;;;;;0.10;0.10;;;;;;;;;;4906888;29;20032;-83
2023/05/11 11:33:12;;;;;;;0.10;0.10;;;;;;;;;;4905451;29;20464;-82
2023/05/11 11:35:40;;;;;;;0.10;0.10;;;;;;;;;;4900355;29;20040;-83
2023/05/11 11:38:11;;;;;;;0.10;0.10;;;;;;;;;;4917095;29;20020;-82
2023/05/11 11:41:09;;;;;;;0.10;0.10;;;;;;;;;;4896686;29;20025;-82
2023/05/11 11:43:44;;;;;;;0.35;0.30;;;;;;;;;;4899322;29;20524;-83
2023/05/11 11:46:24;;;;;;;0.10;0.10;;;;;;;;;;4885714;29;20024;-82
2023/05/11 11:48:50;;;;;;;0.10;0.10;;;;;;;;;;4903070;29;20038;-82
2023/05/11 11:51:31;;;;;;;0.10;0.10;;;;;;;;;;4916793;29;20402;-83
2023/05/11 11:53:58;;;;;;;0.10;0.10;;;;;;;;;;4913125;29;20024;-82
2023/05/11 11:56:32;;;;;;;0.10;0.10;;;;;;;;;;4908941;29;20062;-82
2023/05/11 11:59:04;;;;;;;0.05;0.05;;;;;;;;;;4919321;29;20055;-82
2023/05/11 12:01:50;;;;;;;0.10;0.10;;;;;;;;;;4915716;29;20028;-83
2023/05/11 12:04:42;;;;;;;0.10;0.10;;;;;;;;;;4883519;29;20040;-82
2023/05/11 12:07:43;;;;;;;0.10;0.10;;;;;;;;;;4911154;29;20028;-82
2023/05/11 12:10:18;;;;;;;0.10;0.10;;;;;;;;;;4984909;23;20081;-82
2023/05/11 12:12:56;;;;;;;0.10;0.10;;;;;;;;;;4900675;29;20119;-82
2023/05/11 12:15:35;;;;;;;0.17;0.17;;;;;;;;;;4893035;29;20086;-82
2023/05/11 12:18:19;;;;;;;0.10;0.10;;;;;;;;;;4911322;29;20056;-82
2023/05/11 12:20:55;;;;;;;0.10;0.10;;;;;;;;;;4925728;29;20472;-82
2023/05/11 12:24:03;;;;;;;0.20;0.20;;;;;;;;;;4935717;29;20032;-81
2023/05/11 12:27:03;;;;;;;0.05;0.05;;;;;;;;;;4923850;29;20088;-82
2023/05/11 12:29:30;;;;;;;0.15;0.15;;;;;;;;;;4935158;29;20039;-79
2023/05/11 12:31:59;;;;;;;0.10;0.10;;;;;;;;;;4952476;29;20012;-81
2023/05/11 12:34:24;;;;;;;0.10;0.10;;;;;;;;;;4957107;23;20046;-81
2023/05/11 12:36:54;;;;;;;0.10;0.10;;;;;;;;;;4921798;29;20040;-81
2023/05/11 12:39:24;;;;;;;0.03;0.03;;;;;;;;;;4923232;29;20243;-81
2023/05/11 12:42:00;;;;;;;0.10;0.10;;;;;;;;;;4929530;29;20073;-80
2023/05/11 12:44:32;;;;;;;0.10;0.10;;;;;;;;;;4927336;29;20095;-80
2023/05/11 12:46:57;;;;;;;0.10;0.10;;;;;;;;;;4924833;29;20114;-79
2023/05/11 12:49:24;;;;;;;0.10;0.10;;;;;;;;;;4909237;29;20065;-80
2023/05/11 12:51:59;;;;;;;0.10;0.10;;;;;;;;;;4909901;29;20024;-81
2023/05/11 12:54:36;;;;;;;0.10;0.10;;;;;;;;;;4911218;29;20821;-81
2023/05/11 12:57:02;;;;;;;0.20;0.20;;;;;;;;;;4917981;29;20036;-81
2023/05/11 12:59:34;;;;;;;0.10;0.10;;;;;;;;;;4935906;29;20029;-81
2023/05/11 13:02:15;;;;;;;0.10;0.10;;;;;;;;;;4940553;29;20058;-80
2023/05/11 13:04:41;;;;;;;0.03;0.03;;;;;;;;;;4908692;29;20440;-81
2023/05/11 13:07:07;;;;;;;0.17;0.17;;;;;;;;;;4915003;29;20031;-81
2023/05/11 13:09:33;;;;;;;0.10;0.10;;;;;;;;;;4909540;29;20039;-81
2023/05/11 13:12:11;;;;;;;0.10;0.10;;;;;;;;;;4920070;29;20024;-81
2023/05/11 13:14:37;;;;;;;0.20;0.20;;;;;;;;;;4917816;29;20134;-81
2023/05/11 13:17:02;;;;;;;0.10;0.10;;;;;;;;;;4916620;29;20408;-81
2023/05/11 13:19:31;;;;;;;0.10;0.10;;;;;;;;;;4936149;29;20564;-79
2023/05/11 13:21:57;;;;;;;0.10;0.10;;;;;;;;;;4936282;29;20029;-79
2023/05/11 13:24:32;;;;;;;0.10;0.10;;;;;;;;;;4935717;29;20111;-79
2023/05/11 13:26:58;;;;;;;0.10;0.10;;;;;;;;;;4919898;29;20038;-81
2023/05/11 13:29:24;;;;;;;0.10;0.10;;;;;;;;;;4944734;29;20023;-79
2023/05/11 13:31:51;;;;;;;0.10;0.10;;;;;;;;;;4922326;29;20032;-80
2023/05/11 13:34:17;;;;;;;0.10;0.10;;;;;;;;;;4933124;29;20024;-80
2023/05/11 13:36:43;;;;;;;0.15;0.15;;;;;;;;;;4922474;29;20032;-79
2023/05/11 13:39:08;;;;;;;0.10;0.10;;;;;;;;;;4944017;29;20549;-79
2023/05/11 13:41:34;;;;;;;0.10;0.10;;;;;;;;;;4940834;29;20159;-79
2023/05/11 13:43:59;;;;;;;0.10;0.10;;;;;;;;;;4929550;29;20043;-79
2023/05/11 13:46:25;;;;;;;0.10;0.10;;;;;;;;;;4921621;29;20040;-80
2023/05/11 13:48:50;;;;;;;0.00;0.00;;;;;;;;;;4939586;29;20040;-80
2023/05/11 13:51:16;;;;;;;0.00;0.00;;;;;;;;;;4943049;29;20036;-78
2023/05/11 13:53:42;;;;;;;0.10;0.10;;;;;;;;;;4911869;29;20040;-79
2023/05/11 13:56:08;;;;;;;0.10;0.10;;;;;;;;;;4922736;29;20027;-80
2023/05/11 13:58:34;;;;;;;0.10;0.10;;;;;;;;;;4938350;29;20063;-78
2023/05/11 14:01:00;;;;;;;0.20;0.20;;;;;;;;;;4940782;29;20479;-78
2023/05/11 14:03:25;;;;;;;0.10;0.10;;;;;;;;;;4912487;29;20029;-78
2023/05/11 14:05:50;;;;;;;0.05;0.05;;;;;;;;;;4902848;29;20040;-78
2023/05/11 14:08:16;;;;;;;0.00;0.00;;;;;;;;;;4924495;29;20020;-78
2023/05/11 14:10:43;;;;;;;0.10;0.10;;;;;;;;;;4923815;29;20028;-80
2023/05/11 14:13:08;;;;;;;0.10;0.10;;;;;;;;;;4922523;29;20396;-81
2023/05/11 14:15:36;;;;;;;0.10;0.10;;;;;;;;;;4920258;29;20032;-80
2023/05/11 14:18:06;;;;;;;0.10;0.10;;;;;;;;;;4915806;29;20024;-81
2023/05/11 14:20:34;;;;;;;0.10;0.10;;;;;;;;;;4921976;29;20058;-81
2023/05/11 14:23:02;;;;;;;0.10;0.10;;;;;;;;;;4922934;29;20435;-87
2023/05/11 14:25:29;;;;;;;0.10;0.10;;;;;;;;;;4924396;29;20032;-79
2023/05/11 14:27:54;;;;;;;0.00;0.00;;;;;;;;;;4921096;29;20020;-80
2023/05/11 14:30:20;;;;;;;0.10;0.10;;;;;;;;;;4930526;29;20028;-81
2023/05/11 14:32:46;;;;;;;0.10;0.10;;;;;;;;;;4919305;29;20032;-80
2023/05/11 14:35:11;;;;;;;0.00;0.00;;;;;;;;;;4914776;29;20024;-80
2023/05/11 14:37:37;;;;;;;0.00;0.00;;;;;;;;;;4928310;29;20483;-80
2023/05/11 14:40:03;;;;;;;0.10;0.10;;;;;;;;;;4926962;29;20080;-80
2023/05/11 14:42:28;;;;;;;0.00;0.00;;;;;;;;;;4926766;29;20036;-80
2023/05/11 14:44:54;;;;;;;0.10;0.10;;;;;;;;;;4919251;29;20032;-80
2023/05/11 14:47:19;;;;;;;0.03;0.03;;;;;;;;;;4908093;29;20032;-80
2023/05/11 14:49:44;;;;;;;0.10;0.10;;;;;;;;;;4930761;29;20030;-79
2023/05/11 14:52:10;;;;;;;0.10;0.10;;;;;;;;;;4928400;29;20036;-80
2023/05/11 14:54:35;;;;;;;0.00;0.00;;;;;;;;;;4914707;29;20043;-80
2023/05/11 14:57:01;;;;;;;0.08;0.08;;;;;;;;;;4919724;29;20118;-81